Time;durP1;ratioP1;P1;durP2;ratioP2;P2;SDS_P1;SDS_P2;PMS_P1;PMS_P2;Temp;Humidity;BMP_temperature;BMP_pressure;BME280_temperature;BME280_humidity;BME280_pressure;Samples;Min_cycle;Max_cycle;Signal;HPM_P1;HPM_P2
2022/08/25 00:01:54;;;;;;;40.90;26.73;;;;;;;;;;766435;183;919629;-58
2022/08/25 00:04:19;;;;;;;43.87;29.40;;;;;;;;;;761841;183;929440;-57
2022/08/25 00:06:45;;;;;;;52.60;32.50;;;;;;;;;;769828;183;920203;-58
2022/08/25 00:09:11;;;;;;;51.47;31.03;;;;;;;;;;760973;183;919864;-57
2022/08/25 00:11:37;;;;;;;42.13;30.67;;;;;;;;;;765204;182;932915;-57
2022/08/25 00:14:03;;;;;;;40.47;29.63;;;;;;;;;;768092;183;914987;-57
2022/08/25 00:16:30;;;;;;;44.50;33.30;;;;;;;;;;762735;183;817121;-57
2022/08/25 00:18:55;;;;;;;44.33;32.73;;;;;;;;;;765053;183;914777;-57
2022/08/25 00:21:20;;;;;;;41.70;31.83;;;;;;;;;;765682;183;919897;-57
2022/08/25 00:23:46;;;;;;;43.33;31.13;;;;;;;;;;769279;183;920745;-57
2022/08/25 00:26:12;;;;;;;50.20;32.73;;;;;;;;;;766504;183;921039;-57
2022/08/25 00:28:38;;;;;;;43.77;32.70;;;;;;;;;;767714;180;919140;-58
2022/08/25 00:31:04;;;;;;;46.10;32.27;;;;;;;;;;772845;182;918650;-57
2022/08/25 00:33:31;;;;;;;49.20;35.33;;;;;;;;;;764519;182;920068;-57
2022/08/25 00:35:56;;;;;;;53.87;34.57;;;;;;;;;;765435;182;920089;-58
2022/08/25 00:38:22;;;;;;;53.58;34.65;;;;;;;;;;770439;182;919837;-57
2022/08/25 00:41:04;;;;;;;50.60;33.97;;;;;;;;;;762983;182;920025;-57
2022/08/25 00:43:14;;;;;;;45.83;33.33;;;;;;;;;;761851;182;920032;-57
2022/08/25 00:45:40;;;;;;;45.83;32.03;;;;;;;;;;766416;182;919787;-57
2022/08/25 00:48:06;;;;;;;52.40;32.20;;;;;;;;;;768462;182;917584;-57
2022/08/25 00:50:33;;;;;;;68.33;34.73;;;;;;;;;;764600;183;919768;-57
2022/08/25 00:52:58;;;;;;;47.13;32.27;;;;;;;;;;764533;182;917471;-56
2022/08/25 00:55:39;;;;;;;49.83;32.93;;;;;;;;;;768292;183;920632;-56
2022/08/25 00:58:06;;;;;;;46.83;34.47;;;;;;;;;;762959;183;919909;-58
2022/08/25 01:00:30;;;;;;;54.23;34.90;;;;;;;;;;764298;182;919250;-59
2022/08/25 01:02:56;;;;;;;53.47;36.10;;;;;;;;;;763990;183;918826;-59
2022/08/25 01:05:22;;;;;;;55.10;36.60;;;;;;;;;;772549;182;813454;-58
2022/08/25 01:07:49;;;;;;;53.73;35.30;;;;;;;;;;764505;183;817482;-59
2022/08/25 01:10:14;;;;;;;53.73;36.13;;;;;;;;;;768686;182;919545;-58
2022/08/25 01:12:40;;;;;;;54.37;35.60;;;;;;;;;;762702;183;919314;-58
2022/08/25 01:15:06;;;;;;;51.63;36.07;;;;;;;;;;768004;183;919879;-58
2022/08/25 01:17:34;;;;;;;61.17;39.23;;;;;;;;;;760117;184;918944;-59
2022/08/25 01:20:00;;;;;;;53.63;35.43;;;;;;;;;;766142;183;916209;-58
2022/08/25 01:22:25;;;;;;;47.03;35.63;;;;;;;;;;771379;183;923284;-58
2022/08/25 01:24:54;;;;;;;55.40;35.60;;;;;;;;;;766424;183;919792;-58
2022/08/25 01:27:20;;;;;;;49.53;35.70;;;;;;;;;;762691;181;918454;-58
2022/08/25 01:29:46;;;;;;;47.67;35.87;;;;;;;;;;762571;183;915723;-58
2022/08/25 01:32:12;;;;;;;55.40;35.23;;;;;;;;;;763448;180;917906;-59
2022/08/25 01:34:39;;;;;;;55.63;37.40;;;;;;;;;;761428;183;919726;-58
2022/08/25 01:37:03;;;;;;;56.07;35.77;;;;;;;;;;763407;183;918283;-58
2022/08/25 01:39:29;;;;;;;56.03;35.70;;;;;;;;;;771274;182;921535;-58
2022/08/25 01:42:01;;;;;;;51.27;35.17;;;;;;;;;;767599;182;920519;-58
2022/08/25 01:44:27;;;;;;;47.70;34.37;;;;;;;;;;766330;182;919776;-58
2022/08/25 01:46:53;;;;;;;56.60;37.73;;;;;;;;;;765015;182;919397;-59
2022/08/25 01:49:19;;;;;;;49.90;34.23;;;;;;;;;;765196;182;920062;-58
2022/08/25 01:51:47;;;;;;;54.17;36.30;;;;;;;;;;764119;182;920366;-58
2022/08/25 01:54:13;;;;;;;56.57;37.20;;;;;;;;;;768025;182;918297;-59
2022/08/25 01:56:39;;;;;;;53.50;36.43;;;;;;;;;;772117;182;920894;-58
2022/08/25 01:59:05;;;;;;;48.23;37.00;;;;;;;;;;763887;182;914884;-58
2022/08/25 02:01:31;;;;;;;46.00;34.93;;;;;;;;;;763814;181;1020433;-58
2022/08/25 02:03:57;;;;;;;53.53;38.67;;;;;;;;;;768665;183;919717;-59
2022/08/25 02:06:23;;;;;;;63.30;36.03;;;;;;;;;;762619;182;919219;-58
2022/08/25 02:08:49;;;;;;;58.03;37.83;;;;;;;;;;764373;182;916586;-58
2022/08/25 02:11:15;;;;;;;49.50;34.40;;;;;;;;;;766027;183;920461;-59
2022/08/25 02:13:41;;;;;;;55.07;35.47;;;;;;;;;;770471;183;919533;-58
2022/08/25 02:16:07;;;;;;;50.17;35.50;;;;;;;;;;763512;182;919520;-59
2022/08/25 02:18:33;;;;;;;49.37;35.20;;;;;;;;;;763166;183;919527;-60
2022/08/25 02:20:58;;;;;;;55.07;36.97;;;;;;;;;;768650;183;919630;-58
2022/08/25 02:23:25;;;;;;;52.97;36.40;;;;;;;;;;767023;183;919245;-58
2022/08/25 02:25:50;;;;;;;53.55;35.33;;;;;;;;;;765306;183;930171;-58
2022/08/25 02:28:16;;;;;;;57.40;34.83;;;;;;;;;;767653;182;853805;-58
2022/08/25 02:30:42;;;;;;;58.70;37.40;;;;;;;;;;765083;183;920132;-58
2022/08/25 02:33:08;;;;;;;50.63;34.80;;;;;;;;;;764506;183;818147;-58
2022/08/25 02:35:33;;;;;;;52.47;35.67;;;;;;;;;;762915;183;919789;-58
2022/08/25 02:37:59;;;;;;;54.90;35.53;;;;;;;;;;769155;183;817933;-59
2022/08/25 02:40:26;;;;;;;56.40;37.47;;;;;;;;;;764085;182;817208;-60
2022/08/25 02:42:51;;;;;;;53.55;35.72;;;;;;;;;;762589;183;916612;-59
2022/08/25 02:45:17;;;;;;;55.07;35.47;;;;;;;;;;765878;183;919458;-57
2022/08/25 02:47:43;;;;;;;63.80;36.67;;;;;;;;;;765141;183;921336;-58
2022/08/25 02:50:09;;;;;;;52.20;36.53;;;;;;;;;;764237;183;918514;-57
2022/08/25 02:52:35;;;;;;;49.60;35.57;;;;;;;;;;767837;182;934908;-57
2022/08/25 02:55:03;;;;;;;56.23;38.07;;;;;;;;;;766124;182;919477;-58
2022/08/25 02:57:28;;;;;;;60.83;38.33;;;;;;;;;;765862;182;916676;-58
2022/08/25 02:59:53;;;;;;;57.87;37.47;;;;;;;;;;764649;182;919977;-57
2022/08/25 03:02:19;;;;;;;64.70;40.60;;;;;;;;;;769012;182;917649;-58
2022/08/25 03:04:46;;;;;;;53.03;37.33;;;;;;;;;;762378;182;919818;-57
2022/08/25 03:07:11;;;;;;;62.37;39.23;;;;;;;;;;764983;182;920783;-58
2022/08/25 03:09:37;;;;;;;53.47;38.20;;;;;;;;;;768410;182;920333;-57
2022/08/25 03:12:03;;;;;;;68.40;36.63;;;;;;;;;;767385;181;919638;-58
2022/08/25 03:14:29;;;;;;;52.37;36.77;;;;;;;;;;765678;183;919526;-58
2022/08/25 03:16:54;;;;;;;57.70;36.43;;;;;;;;;;768638;183;919559;-57
2022/08/25 03:19:20;;;;;;;61.17;39.07;;;;;;;;;;764325;182;916804;-57
2022/08/25 03:21:47;;;;;;;53.37;36.50;;;;;;;;;;765348;182;917058;-58
2022/08/25 03:24:12;;;;;;;55.17;38.37;;;;;;;;;;764242;182;918207;-58
2022/08/25 03:29:10;;;;;;;59.07;40.77;;;;;;;;;;763677;182;921342;-58
2022/08/25 03:31:35;;;;;;;53.57;35.50;;;;;;;;;;762888;183;917403;-59
2022/08/25 03:34:01;;;;;;;55.60;37.07;;;;;;;;;;767634;183;918215;-57
2022/08/25 03:36:27;;;;;;;59.90;37.07;;;;;;;;;;766145;183;918857;-58
2022/08/25 03:38:53;;;;;;;69.47;39.90;;;;;;;;;;762523;183;903780;-58
2022/08/25 03:41:20;;;;;;;51.50;34.53;;;;;;;;;;764670;183;917994;-58
2022/08/25 03:43:45;;;;;;;60.60;39.50;;;;;;;;;;768417;183;816772;-57
2022/08/25 03:46:18;;;;;;;63.23;39.37;;;;;;;;;;763782;183;919219;-59
2022/08/25 03:48:42;;;;;;;62.60;38.13;;;;;;;;;;763111;183;917501;-57
2022/08/25 03:51:08;;;;;;;59.10;39.57;;;;;;;;;;770473;183;881175;-57
2022/08/25 03:53:34;;;;;;;73.80;42.80;;;;;;;;;;765266;183;916930;-58
2022/08/25 03:56:00;;;;;;;72.47;42.50;;;;;;;;;;766280;182;918115;-57
2022/08/25 03:58:26;;;;;;;76.67;43.07;;;;;;;;;;765417;183;915131;-57
2022/08/25 04:00:52;;;;;;;72.00;42.67;;;;;;;;;;769637;183;914251;-58
2022/08/25 04:03:18;;;;;;;80.27;44.60;;;;;;;;;;764704;183;918164;-59
2022/08/25 04:05:44;;;;;;;78.40;41.83;;;;;;;;;;765885;182;918798;-57
2022/08/25 04:08:09;;;;;;;87.77;43.00;;;;;;;;;;768476;182;990681;-57
2022/08/25 04:10:35;;;;;;;79.53;43.87;;;;;;;;;;761164;182;945634;-60
2022/08/25 04:13:01;;;;;;;73.93;41.87;;;;;;;;;;770616;182;620481;-59
2022/08/25 04:15:27;;;;;;;71.33;43.07;;;;;;;;;;773923;182;632243;-58
2022/08/25 04:17:53;;;;;;;68.70;42.50;;;;;;;;;;772345;182;617330;-57
2022/08/25 04:20:19;;;;;;;66.30;41.23;;;;;;;;;;767752;182;919373;-58
2022/08/25 04:22:44;;;;;;;70.23;43.77;;;;;;;;;;764861;182;919270;-58
2022/08/25 04:25:10;;;;;;;83.20;44.30;;;;;;;;;;770341;180;918885;-58
2022/08/25 04:27:36;;;;;;;80.50;45.53;;;;;;;;;;763602;182;919463;-57
2022/08/25 04:30:02;;;;;;;101.97;46.50;;;;;;;;;;762712;183;919758;-58
2022/08/25 04:32:28;;;;;;;85.73;46.03;;;;;;;;;;770959;183;616796;-58
2022/08/25 04:34:54;;;;;;;80.87;43.77;;;;;;;;;;770915;183;619275;-58
2022/08/25 04:37:19;;;;;;;86.67;48.17;;;;;;;;;;766404;183;818026;-59
2022/08/25 04:39:45;;;;;;;93.23;45.53;;;;;;;;;;768593;183;917920;-58
2022/08/25 04:42:11;;;;;;;88.37;46.60;;;;;;;;;;763769;183;918905;-57
2022/08/25 04:44:37;;;;;;;78.93;46.57;;;;;;;;;;766654;183;919357;-58
2022/08/25 04:47:03;;;;;;;80.53;44.30;;;;;;;;;;764652;182;915370;-58
2022/08/25 04:49:29;;;;;;;71.90;42.10;;;;;;;;;;768556;183;920323;-58
2022/08/25 04:51:56;;;;;;;88.87;47.10;;;;;;;;;;762528;183;1008142;-59
2022/08/25 04:54:21;;;;;;;80.33;45.87;;;;;;;;;;761965;182;916293;-57
2022/08/25 04:56:47;;;;;;;90.77;47.30;;;;;;;;;;770818;183;920029;-57
2022/08/25 04:59:12;;;;;;;92.17;46.20;;;;;;;;;;764996;183;917561;-58
2022/08/25 05:01:38;;;;;;;99.93;47.00;;;;;;;;;;765464;183;929919;-58
2022/08/25 05:04:04;;;;;;;83.23;42.40;;;;;;;;;;769934;183;919122;-59
2022/08/25 05:06:30;;;;;;;88.53;44.03;;;;;;;;;;762895;183;920303;-59
2022/08/25 05:08:56;;;;;;;91.20;41.30;;;;;;;;;;765673;183;918587;-58
2022/08/25 05:11:22;;;;;;;83.37;44.73;;;;;;;;;;767562;183;920446;-58
2022/08/25 05:13:48;;;;;;;78.40;40.63;;;;;;;;;;760587;183;919606;-59
2022/08/25 05:16:14;;;;;;;71.30;42.13;;;;;;;;;;764973;182;918505;-58
2022/08/25 05:18:39;;;;;;;80.68;42.75;;;;;;;;;;765020;182;919689;-57
2022/08/25 05:21:06;;;;;;;63.03;38.67;;;;;;;;;;768158;182;920565;-58
2022/08/25 05:23:32;;;;;;;73.33;39.23;;;;;;;;;;766607;182;920087;-58
2022/08/25 05:26:01;;;;;;;72.95;40.85;;;;;;;;;;763007;182;919312;-58
2022/08/25 05:28:27;;;;;;;76.77;39.40;;;;;;;;;;769305;182;954299;-60
2022/08/25 05:30:52;;;;;;;80.10;40.17;;;;;;;;;;764360;182;920992;-59
2022/08/25 16:07:12;;;;;;;30.57;14.63;;;;;;;;;;730124;188;27553;-57
2022/08/25 16:09:39;;;;;;;24.70;13.40;;;;;;;;;;760285;188;26948;-57
2022/08/25 16:12:05;;;;;;;30.47;14.20;;;;;;;;;;771246;184;27088;-57
2022/08/25 16:14:31;;;;;;;23.57;12.00;;;;;;;;;;755567;184;918133;-57
2022/08/25 16:16:57;;;;;;;31.40;13.10;;;;;;;;;;759796;184;918976;-57
2022/08/25 16:19:22;;;;;;;32.60;13.83;;;;;;;;;;749751;184;917760;-57
2022/08/25 16:21:48;;;;;;;38.90;13.10;;;;;;;;;;754653;183;919027;-56
2022/08/25 16:24:14;;;;;;;29.07;14.17;;;;;;;;;;753837;184;911146;-58
2022/08/25 16:26:41;;;;;;;38.83;16.27;;;;;;;;;;755768;185;908070;-56
2022/08/25 16:29:06;;;;;;;33.73;14.80;;;;;;;;;;756074;183;906621;-56
2022/08/25 16:31:32;;;;;;;33.20;13.53;;;;;;;;;;752193;185;861694;-57
2022/08/25 16:33:58;;;;;;;33.10;12.77;;;;;;;;;;758830;184;914592;-57
2022/08/25 16:36:23;;;;;;;35.57;13.03;;;;;;;;;;754559;184;846655;-57
2022/08/25 16:38:49;;;;;;;30.67;13.60;;;;;;;;;;759150;184;627753;-56
2022/08/25 16:41:16;;;;;;;35.10;13.60;;;;;;;;;;755824;182;631342;-57
2022/08/25 16:43:42;;;;;;;28.37;13.93;;;;;;;;;;751777;185;916091;-56
2022/08/25 16:46:08;;;;;;;33.47;13.10;;;;;;;;;;756665;183;920516;-56
2022/08/25 16:48:34;;;;;;;35.50;15.70;;;;;;;;;;747130;185;929520;-57
2022/08/25 16:50:59;;;;;;;24.05;12.30;;;;;;;;;;759537;180;920571;-56
2022/08/25 16:55:59;;;;;;;34.03;15.60;;;;;;;;;;754542;184;818653;-57
2022/08/25 16:58:25;;;;;;;28.20;13.10;;;;;;;;;;756359;185;920928;-56
2022/08/25 17:00:51;;;;;;;33.30;14.93;;;;;;;;;;753062;182;918971;-56
2022/08/25 17:03:16;;;;;;;42.50;14.60;;;;;;;;;;753524;184;919445;-55
2022/08/25 17:05:42;;;;;;;30.63;13.47;;;;;;;;;;753437;184;915947;-56
2022/08/25 17:10:39;;;;;;;29.63;13.83;;;;;;;;;;757239;184;912377;-57
2022/08/25 17:13:05;;;;;;;46.10;14.93;;;;;;;;;;754100;183;818395;-56
2022/08/25 17:15:31;;;;;;;25.37;14.30;;;;;;;;;;754193;183;915648;-56
2022/08/25 17:17:57;;;;;;;31.27;14.63;;;;;;;;;;750097;184;919272;-56
2022/08/25 17:20:23;;;;;;;28.97;14.17;;;;;;;;;;754393;184;922439;-57
2022/08/25 17:22:49;;;;;;;31.77;14.03;;;;;;;;;;749980;184;919910;-56
2022/08/25 17:25:14;;;;;;;28.50;13.97;;;;;;;;;;751850;184;918836;-56
2022/08/25 17:27:40;;;;;;;36.60;13.80;;;;;;;;;;749072;183;918943;-55
2022/08/25 17:30:07;;;;;;;37.27;14.17;;;;;;;;;;749677;184;920101;-56
2022/08/25 17:32:33;;;;;;;42.07;15.17;;;;;;;;;;752789;183;920043;-56
2022/08/25 17:34:59;;;;;;;42.80;15.27;;;;;;;;;;749890;184;919974;-56
2022/08/25 17:37:24;;;;;;;46.67;16.40;;;;;;;;;;753519;182;918593;-55
2022/08/25 17:39:50;;;;;;;50.13;17.33;;;;;;;;;;760108;184;920013;-55
2022/08/25 17:42:16;;;;;;;32.37;15.40;;;;;;;;;;753334;184;941591;-55
2022/08/25 17:44:42;;;;;;;42.43;16.00;;;;;;;;;;754088;184;921687;-56
2022/08/25 17:47:08;;;;;;;40.80;17.57;;;;;;;;;;754110;184;919842;-56
2022/08/25 17:49:34;;;;;;;37.40;15.33;;;;;;;;;;759187;185;917603;-56
2022/08/25 17:52:00;;;;;;;29.37;13.90;;;;;;;;;;747899;185;819708;-54
2022/08/25 17:54:25;;;;;;;27.67;12.60;;;;;;;;;;754023;184;920485;-56
2022/08/25 17:56:51;;;;;;;28.57;12.90;;;;;;;;;;753534;185;817481;-55
2022/08/25 17:59:18;;;;;;;26.97;12.73;;;;;;;;;;754580;181;918495;-55
2022/08/25 18:01:43;;;;;;;34.50;14.80;;;;;;;;;;751364;182;919975;-55
2022/08/25 18:04:09;;;;;;;28.87;15.53;;;;;;;;;;753770;182;919038;-55
2022/08/25 18:06:35;;;;;;;34.57;14.80;;;;;;;;;;750785;185;919068;-55
2022/08/25 18:09:01;;;;;;;30.47;13.80;;;;;;;;;;754587;181;817318;-55
2022/08/25 18:11:27;;;;;;;30.23;15.80;;;;;;;;;;757593;185;635711;-56
2022/08/25 18:13:52;;;;;;;32.90;14.53;;;;;;;;;;755371;184;919551;-55
2022/08/25 18:16:18;;;;;;;22.87;12.63;;;;;;;;;;750235;185;925587;-54
2022/08/25 18:18:44;;;;;;;38.43;14.40;;;;;;;;;;754698;184;916282;-55
2022/08/25 18:21:11;;;;;;;28.73;14.23;;;;;;;;;;758802;184;920664;-55
2022/08/25 18:23:37;;;;;;;29.63;16.93;;;;;;;;;;751988;184;918707;-55
2022/08/25 18:26:03;;;;;;;35.13;14.87;;;;;;;;;;754612;184;919392;-55
2022/08/25 18:28:28;;;;;;;26.70;14.27;;;;;;;;;;761286;184;817243;-56
2022/08/25 18:30:54;;;;;;;40.67;14.67;;;;;;;;;;754524;184;921255;-56
2022/08/25 18:33:20;;;;;;;31.37;14.80;;;;;;;;;;756629;184;919075;-55
2022/08/25 18:35:46;;;;;;;34.87;14.10;;;;;;;;;;753790;184;838709;-55
2022/08/25 18:40:43;;;;;;;26.37;14.00;;;;;;;;;;751240;181;921295;-55
2022/08/25 18:43:10;;;;;;;26.73;16.73;;;;;;;;;;755300;184;816815;-54
2022/08/25 18:45:37;;;;;;;40.47;15.03;;;;;;;;;;754586;185;816896;-55
2022/08/25 18:48:03;;;;;;;27.47;15.70;;;;;;;;;;759459;183;816938;-56
2022/08/25 18:50:29;;;;;;;26.33;13.90;;;;;;;;;;748937;185;920154;-55
2022/08/25 18:52:54;;;;;;;31.13;16.30;;;;;;;;;;758049;184;912552;-55
2022/08/25 18:55:21;;;;;;;24.30;15.37;;;;;;;;;;753055;184;918440;-55
2022/08/25 18:57:47;;;;;;;33.13;16.13;;;;;;;;;;752465;180;919982;-55
2022/08/25 19:00:14;;;;;;;31.27;15.30;;;;;;;;;;751429;184;916009;-55
2022/08/25 19:02:38;;;;;;;34.37;16.57;;;;;;;;;;758349;184;920043;-55
2022/08/25 19:05:05;;;;;;;40.70;16.13;;;;;;;;;;755578;184;915238;-55
2022/08/25 19:07:31;;;;;;;29.10;15.97;;;;;;;;;;756703;184;818956;-56
2022/08/25 19:09:57;;;;;;;27.30;16.33;;;;;;;;;;760530;184;919183;-56
2022/08/25 19:12:22;;;;;;;31.90;16.83;;;;;;;;;;748447;184;918254;-55
2022/08/25 19:14:48;;;;;;;32.10;15.68;;;;;;;;;;754285;183;919122;-56
2022/08/25 19:17:14;;;;;;;24.33;15.10;;;;;;;;;;753799;185;921164;-54
2022/08/25 19:19:40;;;;;;;34.80;16.80;;;;;;;;;;738394;184;919324;-55
2022/08/25 19:22:06;;;;;;;42.40;16.00;;;;;;;;;;753964;184;919712;-58
2022/08/25 19:24:32;;;;;;;29.33;15.60;;;;;;;;;;753075;184;921424;-56
2022/08/25 19:27:01;;;;;;;40.17;18.63;;;;;;;;;;754793;185;816171;-54
2022/08/25 19:29:23;;;;;;;32.50;17.27;;;;;;;;;;749361;184;917230;-56
2022/08/25 19:31:49;;;;;;;23.20;15.50;;;;;;;;;;755340;184;819160;-55
2022/08/25 19:34:17;;;;;;;34.63;16.27;;;;;;;;;;760485;184;819065;-56
2022/08/25 19:36:42;;;;;;;29.83;17.37;;;;;;;;;;752930;184;921345;-55
2022/08/25 19:39:07;;;;;;;31.67;16.67;;;;;;;;;;753683;184;821177;-55
2022/08/25 19:41:33;;;;;;;31.33;17.57;;;;;;;;;;760191;184;820254;-55
2022/08/25 19:43:59;;;;;;;32.90;16.90;;;;;;;;;;753873;184;919451;-55
2022/08/25 19:46:25;;;;;;;29.03;15.50;;;;;;;;;;752993;184;919238;-54
2022/08/25 19:48:51;;;;;;;31.87;18.40;;;;;;;;;;753966;184;908547;-55
2022/08/25 19:51:17;;;;;;;25.23;16.23;;;;;;;;;;755295;184;919164;-56
2022/08/25 19:53:43;;;;;;;38.20;16.70;;;;;;;;;;749555;184;919500;-56
2022/08/25 19:56:09;;;;;;;27.10;17.20;;;;;;;;;;747130;181;1020956;-55
2022/08/25 19:58:34;;;;;;;29.97;17.43;;;;;;;;;;753629;184;919823;-55
2022/08/25 20:01:00;;;;;;;27.20;16.67;;;;;;;;;;757004;184;920624;-56
2022/08/25 20:03:26;;;;;;;24.43;15.97;;;;;;;;;;751669;185;919759;-55
2022/08/25 20:05:54;;;;;;;33.77;16.50;;;;;;;;;;757637;184;920254;-55
2022/08/25 20:08:18;;;;;;;24.73;16.00;;;;;;;;;;756935;183;820674;-56
2022/08/25 20:10:44;;;;;;;29.60;16.47;;;;;;;;;;753952;184;915137;-55
2022/08/25 20:13:10;;;;;;;33.23;17.70;;;;;;;;;;755712;181;915954;-55
2022/08/25 20:15:36;;;;;;;28.57;18.20;;;;;;;;;;757327;185;913415;-55
2022/08/25 20:18:02;;;;;;;34.63;16.07;;;;;;;;;;752320;184;916925;-55
2022/08/25 20:20:28;;;;;;;29.17;17.17;;;;;;;;;;757590;184;919096;-56
2022/08/25 20:24:46;;;;;;;32.63;17.70;;;;;;;;;;755886;185;921826;-55
2022/08/25 20:25:20;;;;;;;24.80;16.57;;;;;;;;;;749821;185;917758;-56
2022/08/25 20:27:45;;;;;;;39.47;19.20;;;;;;;;;;755120;184;919263;-55
2022/08/25 20:30:12;;;;;;;36.83;17.33;;;;;;;;;;753172;185;919605;-55
2022/08/25 20:32:38;;;;;;;30.17;17.47;;;;;;;;;;753983;184;920978;-55
2022/08/25 20:35:04;;;;;;;44.83;17.77;;;;;;;;;;753758;184;918366;-55
2022/08/25 20:37:30;;;;;;;27.08;18.17;;;;;;;;;;749222;185;917862;-55
2022/08/25 20:39:56;;;;;;;39.63;18.40;;;;;;;;;;750276;185;919988;-55
2022/08/25 20:42:22;;;;;;;28.73;18.07;;;;;;;;;;745860;184;917292;-56
2022/08/25 20:44:48;;;;;;;37.00;18.60;;;;;;;;;;752358;185;924649;-55
2022/08/25 20:47:14;;;;;;;31.27;18.90;;;;;;;;;;764885;183;628175;-55
2022/08/25 20:49:42;;;;;;;39.33;20.60;;;;;;;;;;757573;184;640743;-54
2022/08/25 20:52:06;;;;;;;27.97;17.57;;;;;;;;;;755591;181;621167;-55
2022/08/25 20:54:31;;;;;;;36.73;18.83;;;;;;;;;;758702;182;633544;-55
2022/08/25 20:56:57;;;;;;;29.60;18.37;;;;;;;;;;754843;183;917020;-55
2022/08/25 20:59:23;;;;;;;33.63;17.07;;;;;;;;;;754559;181;920277;-56
2022/08/25 21:01:49;;;;;;;25.77;16.10;;;;;;;;;;760153;184;918889;-55
2022/08/25 21:04:15;;;;;;;35.93;16.80;;;;;;;;;;755659;181;920749;-55
2022/08/25 21:06:41;;;;;;;24.30;16.47;;;;;;;;;;753796;184;919449;-56
2022/08/25 21:09:07;;;;;;;35.00;17.30;;;;;;;;;;752354;184;918995;-56
2022/08/25 21:11:32;;;;;;;32.97;18.60;;;;;;;;;;757425;185;919987;-55
2022/08/25 21:14:00;;;;;;;33.80;18.53;;;;;;;;;;755501;184;920290;-55
2022/08/25 21:16:24;;;;;;;31.20;17.63;;;;;;;;;;752030;185;819808;-55
2022/08/25 21:18:50;;;;;;;22.93;18.10;;;;;;;;;;758013;184;919093;-54
2022/08/25 21:21:16;;;;;;;35.23;18.97;;;;;;;;;;753289;184;918744;-54
2022/08/25 21:23:42;;;;;;;34.37;17.17;;;;;;;;;;755958;184;898204;-54
2022/08/25 21:26:08;;;;;;;28.67;17.57;;;;;;;;;;760046;182;845360;-56
2022/08/25 21:28:33;;;;;;;34.73;19.90;;;;;;;;;;750018;184;919290;-55
2022/08/25 21:30:59;;;;;;;39.57;17.70;;;;;;;;;;754680;184;894747;-54
2022/08/25 21:33:25;;;;;;;28.53;17.70;;;;;;;;;;755271;184;816286;-55
2022/08/25 21:35:51;;;;;;;30.37;17.77;;;;;;;;;;763688;183;911847;-56
2022/08/25 21:38:17;;;;;;;29.03;17.87;;;;;;;;;;756866;182;923665;-55
2022/08/25 21:40:43;;;;;;;27.83;16.37;;;;;;;;;;749521;185;918263;-54
2022/08/25 21:43:09;;;;;;;37.00;18.97;;;;;;;;;;758451;181;915150;-54
2022/08/25 21:45:36;;;;;;;35.33;17.10;;;;;;;;;;752773;181;896468;-54
2022/08/25 21:48:02;;;;;;;35.30;17.27;;;;;;;;;;753188;185;919724;-56
2022/08/25 21:50:30;;;;;;;25.50;18.30;;;;;;;;;;756131;185;919480;-55
2022/08/25 21:52:55;;;;;;;32.23;17.10;;;;;;;;;;752634;184;918905;-55
2022/08/25 21:55:21;;;;;;;31.90;17.77;;;;;;;;;;754638;184;921439;-55
2022/08/25 21:57:46;;;;;;;50.33;20.57;;;;;;;;;;756173;183;917332;-56
2022/08/25 22:00:13;;;;;;;22.43;16.50;;;;;;;;;;763346;184;915715;-55
2022/08/25 22:02:38;;;;;;;35.07;16.90;;;;;;;;;;755341;184;919185;-56
2022/08/25 22:05:06;;;;;;;29.80;19.00;;;;;;;;;;756516;182;919500;-55
2022/08/25 22:07:31;;;;;;;30.47;20.23;;;;;;;;;;761622;183;919737;-55
2022/08/25 22:09:56;;;;;;;29.63;19.50;;;;;;;;;;754573;184;918433;-54
2022/08/25 22:12:23;;;;;;;35.43;20.83;;;;;;;;;;754647;184;919600;-56
2022/08/25 22:14:49;;;;;;;32.77;19.07;;;;;;;;;;756357;184;919235;-55
2022/08/25 22:17:14;;;;;;;32.80;20.63;;;;;;;;;;755206;184;919188;-54
2022/08/25 22:19:40;;;;;;;31.60;20.33;;;;;;;;;;754009;184;916878;-55
2022/08/25 22:22:06;;;;;;;33.90;20.90;;;;;;;;;;750982;183;917221;-55
2022/08/25 22:24:32;;;;;;;37.60;21.30;;;;;;;;;;751081;185;915204;-54
2022/08/25 22:26:57;;;;;;;34.40;20.17;;;;;;;;;;753924;180;920095;-55
2022/08/25 22:29:23;;;;;;;33.03;20.10;;;;;;;;;;749939;185;919987;-55
2022/08/25 22:31:49;;;;;;;26.67;20.70;;;;;;;;;;756399;182;916008;-55
2022/08/25 22:34:15;;;;;;;35.00;21.30;;;;;;;;;;755108;184;919409;-55
2022/08/25 22:36:41;;;;;;;34.50;19.23;;;;;;;;;;749330;184;1022769;-56
2022/08/25 22:39:07;;;;;;;30.57;21.10;;;;;;;;;;758294;184;1028650;-55
2022/08/25 22:41:33;;;;;;;29.10;22.40;;;;;;;;;;752908;184;817923;-55
2022/08/25 22:43:58;;;;;;;36.63;23.20;;;;;;;;;;753567;183;920769;-55
2022/08/25 22:46:24;;;;;;;42.03;26.50;;;;;;;;;;752720;185;920286;-55
2022/08/25 22:48:50;;;;;;;40.37;24.93;;;;;;;;;;752776;184;920994;-55
2022/08/25 22:51:16;;;;;;;55.27;28.40;;;;;;;;;;749510;181;916757;-55
2022/08/25 22:53:42;;;;;;;44.83;28.07;;;;;;;;;;752767;185;913600;-56
2022/08/25 22:56:08;;;;;;;45.33;31.27;;;;;;;;;;761060;182;921848;-54
2022/08/25 22:58:33;;;;;;;45.13;30.73;;;;;;;;;;756742;184;819312;-56
2022/08/25 23:00:59;;;;;;;45.10;31.83;;;;;;;;;;748911;184;919298;-55
2022/08/25 23:03:25;;;;;;;46.10;32.00;;;;;;;;;;760689;184;918902;-55
2022/08/25 23:05:51;;;;;;;41.97;31.50;;;;;;;;;;753415;181;918700;-55
2022/08/25 23:08:17;;;;;;;36.67;30.23;;;;;;;;;;751994;184;918964;-55
2022/08/25 23:10:48;;;;;;;48.63;29.23;;;;;;;;;;758212;184;851682;-55
2022/08/25 23:13:14;;;;;;;40.30;29.33;;;;;;;;;;763354;184;918149;-56
2022/08/25 23:15:40;;;;;;;35.67;29.17;;;;;;;;;;756949;184;919870;-55
2022/08/25 23:18:06;;;;;;;42.57;28.27;;;;;;;;;;750885;184;919635;-55
2022/08/25 23:23:04;;;;;;;44.87;28.60;;;;;;;;;;754723;182;919676;-55
2022/08/25 23:25:30;;;;;;;38.43;28.70;;;;;;;;;;748699;184;920194;-55
2022/08/25 23:27:55;;;;;;;44.83;28.97;;;;;;;;;;751701;184;919174;-56
2022/08/25 23:30:21;;;;;;;49.63;28.70;;;;;;;;;;756470;185;919279;-55
2022/08/25 23:32:47;;;;;;;39.20;28.73;;;;;;;;;;751111;182;921095;-55
2022/08/25 23:35:13;;;;;;;45.60;26.20;;;;;;;;;;753274;185;921144;-56
2022/08/25 23:37:39;;;;;;;43.70;27.87;;;;;;;;;;759357;184;918281;-56
2022/08/25 23:40:05;;;;;;;38.40;26.97;;;;;;;;;;755739;184;917918;-55
2022/08/25 23:42:31;;;;;;;43.57;26.37;;;;;;;;;;749368;185;919029;-56
2022/08/25 23:44:57;;;;;;;38.87;27.83;;;;;;;;;;752772;185;816694;-55
2022/08/25 23:47:23;;;;;;;42.90;26.70;;;;;;;;;;754505;185;918557;-55
2022/08/25 23:49:49;;;;;;;45.97;28.50;;;;;;;;;;755023;185;916621;-55
2022/08/25 23:52:16;;;;;;;30.53;25.70;;;;;;;;;;753733;182;918674;-55
2022/08/25 23:54:40;;;;;;;34.40;25.23;;;;;;;;;;743990;185;817325;-56
2022/08/25 23:57:06;;;;;;;41.05;26.85;;;;;;;;;;753411;184;919532;-56
2022/08/25 23:59:32;;;;;;;38.03;24.53;;;;;;;;;;753082;182;920008;-56
